Time;durP1;ratioP1;P1;durP2;ratioP2;P2;SDS_P1;SDS_P2;PMS_P1;PMS_P2;Temp;Humidity;BMP_temperature;BMP_pressure;BME280_temperature;BME280_humidity;BME280_pressure;Samples;Min_cycle;Max_cycle;Signal;HPM_P1;HPM_P2
2021/04/21 00:00:14;;;;;;;11.27;7.53;;;7.70;73.10;;;;;;6278281;22;20027;-39
2021/04/21 00:02:48;;;;;;;10.00;7.18;;;7.60;72.70;;;;;;6268136;22;20019;-39
2021/04/21 00:05:16;;;;;;;13.10;7.82;;;7.60;72.70;;;;;;6267847;22;20026;-39
2021/04/21 00:07:42;;;;;;;9.55;6.88;;;7.60;73.00;;;;;;6266957;22;20015;-38
2021/04/21 00:10:10;;;;;;;8.93;7.03;;;7.50;73.40;;;;;;6267410;22;20026;-39
2021/04/21 00:12:38;;;;;;;11.88;7.68;;;7.50;73.20;;;;;;6240547;22;20449;-39
2021/04/21 00:15:16;;;;;;;12.13;7.65;;;7.50;73.40;;;;;;6267094;22;20016;-39
2021/04/21 00:17:47;;;;;;;11.80;7.90;;;7.50;74.40;;;;;;6268207;22;20054;-40
2021/04/21 00:20:16;;;;;;;8.57;7.15;;;7.40;73.40;;;;;;6268572;22;20102;-39
2021/04/21 00:22:45;;;;;;;12.02;7.22;;;7.30;73.30;;;;;;6269082;22;20046;-38
2021/04/21 00:25:15;;;;;;;13.27;7.88;;;7.30;74.20;;;;;;6267188;22;20103;-38
2021/04/21 00:27:43;;;;;;;10.38;8.40;;;7.30;74.80;;;;;;6268066;22;20019;-39
2021/04/21 00:30:12;;;;;;;17.55;8.52;;;7.30;74.50;;;;;;6267452;22;20476;-38
2021/04/21 00:32:47;;;;;;;8.77;7.07;;;7.30;74.30;;;;;;6267851;22;20338;-39
2021/04/21 00:35:26;;;;;;;10.18;7.10;;;7.20;74.90;;;;;;6268420;22;20020;-40
2021/04/21 00:37:56;;;;;;;10.98;7.70;;;7.20;74.80;;;;;;6268145;22;20559;-39
2021/04/21 00:40:36;;;;;;;10.68;7.45;;;7.10;75.20;;;;;;6268289;22;20015;-40
2021/04/21 00:43:09;;;;;;;11.20;7.82;;;7.10;75.60;;;;;;6267645;22;20015;-39
2021/04/21 00:45:42;;;;;;;9.95;7.47;;;7.00;76.00;;;;;;6266727;22;20027;-39
2021/04/21 00:48:15;;;;;;;10.75;8.18;;;7.00;76.90;;;;;;6267952;22;20999;-39
2021/04/21 00:50:57;;;;;;;8.57;7.38;;;7.00;76.30;;;;;;6268899;22;20096;-39
2021/04/21 00:53:40;;;;;;;9.85;8.13;;;6.90;76.10;;;;;;6241503;22;20047;-39
2021/04/21 00:56:39;;;;;;;14.75;7.80;;;6.90;77.20;;;;;;6239318;22;20016;-40
2021/04/21 00:59:17;;;;;;;10.02;7.32;;;6.90;75.70;;;;;;6265941;22;20360;-38
2021/04/21 01:01:45;;;;;;;15.63;8.55;;;6.80;76.80;;;;;;6240529;22;20876;-39
2021/04/21 01:04:12;;;;;;;11.85;7.93;;;6.80;76.60;;;;;;6240051;22;20449;-38
2021/04/21 01:06:46;;;;;;;12.45;8.13;;;6.70;77.10;;;;;;6239155;22;20050;-39
2021/04/21 01:09:16;;;;;;;10.65;7.70;;;6.60;77.40;;;;;;6235632;23;20020;-39
2021/04/21 01:12:01;;;;;;;10.13;7.57;;;6.50;78.10;;;;;;6235988;23;20345;-39
2021/04/21 01:14:33;;;;;;;12.57;8.48;;;6.50;77.60;;;;;;6245970;23;20746;-39
2021/04/21 01:17:04;;;;;;;11.20;8.15;;;6.50;78.00;;;;;;6237305;22;20079;-39
2021/04/21 01:19:40;;;;;;;8.57;7.32;;;6.50;79.20;;;;;;6237453;22;20043;-39
2021/04/21 01:22:42;;;;;;;11.20;7.63;;;6.50;78.80;;;;;;6237071;22;20036;-39
2021/04/21 01:25:15;;;;;;;10.35;7.05;;;6.50;78.50;;;;;;6153141;23;20025;-39
2021/04/21 01:28:00;;;;;;;9.30;7.55;;;6.50;78.70;;;;;;6118878;23;20036;-38
2021/04/21 01:30:29;;;;;;;16.40;8.32;;;6.30;79.10;;;;;;6144188;23;20372;-39
2021/04/21 01:32:59;;;;;;;10.18;7.60;;;6.20;78.80;;;;;;6143465;23;20029;-39
2021/04/21 01:35:27;;;;;;;13.75;7.97;;;6.20;79.40;;;;;;6143603;23;20024;-39
2021/04/21 01:37:59;;;;;;;12.60;9.00;;;6.20;79.00;;;;;;6142850;23;20025;-39
2021/04/21 01:40:30;;;;;;;13.90;8.68;;;6.20;79.40;;;;;;6153706;23;20538;-39
2021/04/21 01:43:11;;;;;;;10.98;9.05;;;6.20;79.00;;;;;;6154582;23;20060;-40
2021/04/21 01:45:41;;;;;;;11.35;9.15;;;6.20;79.30;;;;;;6144609;23;20028;-40
2021/04/21 01:48:23;;;;;;;12.80;8.98;;;6.20;79.30;;;;;;6143071;23;20022;-37
2021/04/21 01:50:52;;;;;;;9.40;7.65;;;6.20;80.10;;;;;;6143642;23;20041;-38
2021/04/21 01:53:24;;;;;;;14.57;9.77;;;6.10;80.10;;;;;;6144649;23;20027;-38
2021/04/21 01:56:18;;;;;;;12.73;8.85;;;6.20;79.60;;;;;;6155356;23;20032;-38
2021/04/21 01:59:06;;;;;;;10.73;7.60;;;6.10;79.60;;;;;;6145414;23;20021;-38
2021/04/21 02:01:40;;;;;;;13.43;8.20;;;6.00;80.30;;;;;;6191112;23;20027;-39
2021/04/21 02:04:41;;;;;;;9.43;7.95;;;6.00;80.90;;;;;;6239514;22;20020;-39
2021/04/21 02:07:32;;;;;;;9.93;7.93;;;5.90;81.30;;;;;;6238661;22;20027;-39
2021/04/21 02:10:26;;;;;;;11.23;7.88;;;5.90;80.80;;;;;;6273566;22;20023;-40
2021/04/21 02:13:18;;;;;;;10.15;7.75;;;5.90;81.20;;;;;;6268266;22;20019;-39
2021/04/21 02:16:17;;;;;;;12.48;8.18;;;5.90;80.60;;;;;;6268425;22;20016;-39
2021/04/21 02:18:59;;;;;;;12.63;8.68;;;5.90;81.50;;;;;;6114083;23;20022;-38
2021/04/21 02:21:48;;;;;;;13.88;7.65;;;5.90;81.80;;;;;;6115191;23;20022;-38
2021/04/21 02:24:35;;;;;;;10.05;7.97;;;5.90;81.60;;;;;;6114931;23;20022;-39
2021/04/21 02:27:24;;;;;;;11.10;7.78;;;5.80;81.10;;;;;;6114408;23;20459;-39
2021/04/21 02:30:12;;;;;;;10.75;8.38;;;5.80;81.20;;;;;;6115226;23;20511;-39
2021/04/21 02:33:09;;;;;;;11.18;8.10;;;5.70;80.50;;;;;;6125119;23;20025;-39
2021/04/21 02:35:50;;;;;;;10.93;7.25;;;5.70;82.20;;;;;;6125258;23;20519;-39
2021/04/21 02:38:32;;;;;;;12.02;8.75;;;5.70;81.10;;;;;;6115043;23;20799;-39
2021/04/21 02:41:04;;;;;;;10.45;8.57;;;5.70;82.30;;;;;;6116196;23;20056;-40
2021/04/21 02:43:43;;;;;;;13.10;8.25;;;5.60;81.40;;;;;;6114905;23;20041;-39
2021/04/21 02:46:30;;;;;;;9.25;8.20;;;5.60;82.10;;;;;;6114767;23;20029;-39
2021/04/21 02:49:15;;;;;;;11.13;8.38;;;5.60;83.30;;;;;;6114161;23;20487;-39
2021/04/21 02:51:46;;;;;;;11.15;8.18;;;5.60;83.00;;;;;;6114985;23;20157;-39
2021/04/21 02:54:41;;;;;;;11.07;9.05;;;5.60;82.30;;;;;;6124676;23;20021;-38
2021/04/21 02:57:15;;;;;;;9.88;7.90;;;5.50;82.40;;;;;;6233231;23;20514;-39
2021/04/21 03:00:01;;;;;;;13.98;9.95;;;5.50;82.90;;;;;;6234361;23;20152;-38
2021/04/21 03:02:34;;;;;;;11.00;8.68;;;5.50;83.40;;;;;;6234886;23;20508;-38
2021/04/21 03:05:16;;;;;;;15.45;8.98;;;5.50;82.90;;;;;;6233265;23;20012;-39
2021/04/21 03:08:20;;;;;;;12.75;9.15;;;5.40;82.60;;;;;;6233427;23;20020;-38
2021/04/21 03:10:53;;;;;;;8.88;7.70;;;5.40;82.90;;;;;;6243796;23;20055;-38
2021/04/21 03:13:25;;;;;;;14.70;9.82;;;5.30;82.30;;;;;;6261706;22;20134;-38
2021/04/21 03:16:03;;;;;;;12.00;8.88;;;5.30;82.50;;;;;;6268318;22;20016;-39
2021/04/21 03:18:32;;;;;;;13.82;9.20;;;5.30;83.40;;;;;;6268421;22;20016;-39
2021/04/21 03:21:15;;;;;;;12.77;9.75;;;5.30;83.40;;;;;;6269844;22;20016;-39
2021/04/21 03:23:50;;;;;;;13.30;9.07;;;5.30;83.80;;;;;;6270184;22;20408;-39
2021/04/21 03:26:19;;;;;;;11.75;8.73;;;5.30;83.60;;;;;;6279136;22;20020;-39
2021/04/21 03:28:51;;;;;;;10.77;8.23;;;5.20;83.50;;;;;;6241555;22;20034;-39
2021/04/21 03:31:20;;;;;;;12.38;9.23;;;5.10;83.30;;;;;;6241577;22;20103;-39
2021/04/21 03:33:50;;;;;;;12.77;10.20;;;5.10;83.40;;;;;;6268839;22;20019;-39
2021/04/21 03:36:19;;;;;;;14.60;9.65;;;5.10;83.60;;;;;;6269302;22;20019;-39
2021/04/21 03:38:57;;;;;;;13.93;10.15;;;5.10;83.20;;;;;;6268752;22;20336;-40
2021/04/21 03:41:24;;;;;;;12.63;10.25;;;5.10;83.90;;;;;;6278332;22;20038;-40
2021/04/21 03:43:51;;;;;;;14.95;11.00;;;5.10;83.60;;;;;;6268148;22;20044;-40
2021/04/21 03:46:18;;;;;;;16.60;11.90;;;5.10;83.70;;;;;;6267752;22;20019;-39
2021/04/21 03:48:46;;;;;;;15.63;11.88;;;5.10;83.80;;;;;;6267395;22;20019;-39
2021/04/21 03:51:14;;;;;;;16.77;12.20;;;5.10;84.10;;;;;;6279165;22;20094;-39
2021/04/21 03:53:42;;;;;;;17.58;12.45;;;5.00;83.80;;;;;;6268127;22;20020;-39
2021/04/21 03:56:17;;;;;;;20.13;14.93;;;5.10;84.90;;;;;;6267764;22;20094;-39
2021/04/21 03:58:46;;;;;;;17.35;14.20;;;5.10;85.30;;;;;;6267146;22;20019;-39
2021/04/21 04:01:19;;;;;;;21.23;15.13;;;5.10;85.20;;;;;;6267632;22;20023;-38
2021/04/21 04:03:50;;;;;;;18.77;15.80;;;5.10;85.40;;;;;;6268817;22;20019;-39
2021/04/21 04:06:37;;;;;;;19.30;14.93;;;5.10;85.30;;;;;;6278547;22;20027;-39
2021/04/21 04:09:05;;;;;;;19.92;16.15;;;5.20;86.00;;;;;;6264077;22;20411;-38
2021/04/21 04:11:42;;;;;;;21.92;17.08;;;5.10;85.60;;;;;;6268186;22;20016;-38
2021/04/21 04:14:19;;;;;;;19.25;17.17;;;5.10;85.70;;;;;;6267757;22;20199;-39
2021/04/21 04:16:48;;;;;;;21.08;17.23;;;5.10;85.90;;;;;;6267505;22;20330;-38
2021/04/21 04:19:15;;;;;;;21.65;17.20;;;5.10;85.80;;;;;;6278578;22;20051;-39
2021/04/21 04:21:46;;;;;;;20.98;17.17;;;5.20;86.20;;;;;;6267944;22;20023;-38
2021/04/21 04:24:14;;;;;;;23.20;18.35;;;5.20;86.40;;;;;;6267774;22;20078;-38
2021/04/21 04:26:43;;;;;;;22.58;18.40;;;5.30;86.30;;;;;;6267886;22;20054;-38
2021/04/21 04:29:13;;;;;;;20.23;18.08;;;5.30;86.40;;;;;;6277215;22;20019;-38
2021/04/21 04:31:40;;;;;;;21.38;18.55;;;5.30;86.00;;;;;;6277828;22;20015;-38
2021/04/21 04:34:08;;;;;;;21.05;18.73;;;5.40;85.90;;;;;;6268844;22;20042;-39
2021/04/21 04:36:43;;;;;;;20.70;18.42;;;5.40;85.80;;;;;;6268232;22;20492;-39
2021/04/21 04:39:09;;;;;;;22.92;19.58;;;5.40;85.30;;;;;;6267647;22;20050;-39
2021/04/21 04:41:37;;;;;;;21.05;18.90;;;5.50;85.70;;;;;;6267881;22;20072;-39
2021/04/21 04:44:06;;;;;;;21.83;19.63;;;5.50;85.40;;;;;;6268256;22;20068;-39
2021/04/21 04:46:36;;;;;;;20.85;18.83;;;5.50;85.50;;;;;;6269062;22;20015;-39
2021/04/21 04:49:09;;;;;;;20.30;18.40;;;5.50;85.90;;;;;;6267387;22;20016;-39
2021/04/21 04:51:40;;;;;;;20.77;18.58;;;5.60;85.50;;;;;;6278714;22;20061;-40
2021/04/21 04:54:06;;;;;;;24.63;19.20;;;5.60;84.70;;;;;;6267910;22;20030;-38
2021/04/21 04:56:34;;;;;;;20.75;18.73;;;5.60;85.10;;;;;;6267308;22;20019;-38
2021/04/21 04:59:05;;;;;;;23.05;18.90;;;5.60;85.10;;;;;;6267781;22;20043;-38
2021/04/21 05:01:49;;;;;;;20.60;17.92;;;5.60;85.00;;;;;;6267408;22;20020;-38
2021/04/21 05:04:22;;;;;;;19.38;16.75;;;5.60;85.30;;;;;;6277526;22;20098;-38
2021/04/21 05:06:58;;;;;;;21.30;16.13;;;5.50;85.30;;;;;;6267105;22;20542;-38
2021/04/21 05:09:29;;;;;;;19.45;17.38;;;5.50;85.00;;;;;;6277315;22;20092;-38
2021/04/21 05:11:58;;;;;;;19.23;17.00;;;5.40;85.40;;;;;;6267132;22;20020;-38
2021/04/21 05:14:28;;;;;;;20.13;17.13;;;5.50;85.60;;;;;;6268236;22;20100;-38
2021/04/21 05:17:18;;;;;;;19.58;16.50;;;5.50;85.60;;;;;;6267096;22;20341;-38
2021/04/21 05:20:06;;;;;;;18.27;16.48;;;5.50;85.30;;;;;;6266627;22;20027;-38
2021/04/21 05:23:07;;;;;;;25.65;21.92;;;5.60;85.60;;;;;;6267041;22;20024;-39
2021/04/21 05:26:19;;;;;;;20.55;18.30;;;5.70;85.50;;;;;;6266639;22;20019;-39
2021/04/21 05:29:00;;;;;;;18.38;16.40;;;5.70;85.60;;;;;;6266748;22;20031;-39
2021/04/21 05:32:02;;;;;;;18.55;15.98;;;5.80;84.80;;;;;;6267158;22;20471;-39
2021/04/21 05:35:02;;;;;;;19.42;14.93;;;5.90;84.80;;;;;;6276846;22;20027;-39
2021/04/21 05:38:31;;;;;;;20.98;16.02;;;6.20;84.50;;;;;;4970051;27;4353878;-39
2021/04/21 05:41:29;;;;;;;17.42;15.27;;;6.40;84.50;;;;;;5050033;28;20085;-39
2021/04/21 05:44:29;;;;;;;19.23;15.27;;;6.60;84.60;;;;;;5043930;28;20068;-39
2021/04/21 05:47:29;;;;;;;20.48;17.52;;;6.90;84.20;;;;;;5060028;28;20064;-39
2021/04/21 05:50:32;;;;;;;17.15;15.02;;;7.10;84.20;;;;;;5059510;28;20513;-39
2021/04/21 05:53:19;;;;;;;18.65;15.13;;;7.30;84.10;;;;;;5061041;28;20074;-40
2021/04/21 05:56:01;;;;;;;19.88;15.13;;;7.60;84.80;;;;;;5038480;28;20052;-41
2021/04/21 05:58:50;;;;;;;21.15;16.67;;;7.70;85.00;;;;;;5061672;28;20053;-40
2021/04/21 06:01:22;;;;;;;17.88;15.98;;;7.90;84.70;;;;;;5059090;28;20110;-40
2021/04/21 06:03:58;;;;;;;18.48;16.45;;;8.00;84.70;;;;;;5069329;28;20047;-42
2021/04/21 06:06:26;;;;;;;102.68;85.25;;;8.30;85.00;;;;;;5060398;28;20052;-40
2021/04/21 06:08:53;;;;;;;22.23;18.60;;;8.80;82.90;;;;;;5058911;28;20041;-40
2021/04/21 06:11:25;;;;;;;27.50;23.23;;;8.90;82.10;;;;;;5057263;28;20408;-43
2021/04/21 06:13:58;;;;;;;27.08;24.42;;;8.90;82.10;;;;;;5063131;28;20071;-39
2021/04/21 06:16:30;;;;;;;22.88;20.50;;;9.00;81.40;;;;;;5060490;28;20072;-41
2021/04/21 06:19:08;;;;;;;22.30;19.90;;;9.10;80.70;;;;;;5054837;28;20037;-40
2021/04/21 06:21:41;;;;;;;25.45;18.30;;;9.20;80.40;;;;;;5060006;28;20053;-41
2021/04/21 06:24:24;;;;;;;19.00;16.40;;;9.20;80.30;;;;;;5061507;28;20073;-44
2021/04/21 06:27:04;;;;;;;24.17;17.42;;;9.40;79.90;;;;;;5060519;28;20068;-40
2021/04/21 06:29:36;;;;;;;18.42;16.50;;;9.30;80.00;;;;;;5060039;28;20102;-42
2021/04/21 06:32:06;;;;;;;18.35;16.42;;;9.30;80.40;;;;;;5043946;28;20048;-41
2021/04/21 06:34:34;;;;;;;18.42;16.60;;;9.30;80.00;;;;;;5067943;28;20079;-42
2021/04/21 06:37:03;;;;;;;17.13;15.35;;;9.30;79.90;;;;;;5067933;28;20400;-40
2021/04/21 06:39:32;;;;;;;22.48;17.48;;;9.30;79.90;;;;;;5074103;28;20059;-41
2021/04/21 06:42:06;;;;;;;21.40;17.45;;;9.30;79.60;;;;;;5066885;28;20044;-41
2021/04/21 06:44:45;;;;;;;20.02;15.93;;;9.40;79.50;;;;;;5070197;28;20127;-41
2021/04/21 06:47:19;;;;;;;19.77;16.27;;;9.70;79.60;;;;;;5065890;28;20684;-40
2021/04/21 06:49:56;;;;;;;20.17;18.08;;;10.10;78.50;;;;;;5038169;28;20124;-41
2021/04/21 06:52:43;;;;;;;18.27;15.45;;;10.50;77.80;;;;;;5053364;28;20063;-42
2021/04/21 06:55:12;;;;;;;20.05;14.88;;;10.90;74.80;;;;;;5056283;28;20056;-40
2021/04/21 06:57:42;;;;;;;17.83;15.43;;;11.30;75.40;;;;;;5054197;28;20060;-44
2021/04/21 07:00:15;;;;;;;15.82;14.23;;;11.70;74.40;;;;;;5049565;28;20045;-43
2021/04/21 07:02:44;;;;;;;17.58;14.65;;;12.10;73.00;;;;;;5058641;28;20048;-42
2021/04/21 07:05:31;;;;;;;18.40;13.60;;;12.40;70.40;;;;;;5052737;28;20045;-43
2021/04/21 07:08:05;;;;;;;90.70;79.18;;;12.60;68.30;;;;;;5055747;28;20126;-44
2021/04/21 07:10:55;;;;;;;32.90;29.30;;;13.40;66.80;;;;;;5044994;28;20075;-42
2021/04/21 07:13:25;;;;;;;33.05;22.88;;;13.70;65.50;;;;;;5043825;28;20098;-43
2021/04/21 07:16:01;;;;;;;25.92;18.50;;;14.00;65.00;;;;;;5049593;28;20052;-44
2021/04/21 07:18:31;;;;;;;26.75;23.20;;;14.10;62.90;;;;;;5037038;28;20068;-44
2021/04/21 07:21:00;;;;;;;22.90;20.02;;;13.80;64.70;;;;;;5046287;28;20072;-43
2021/04/21 07:23:28;;;;;;;28.48;23.08;;;13.70;64.50;;;;;;5046995;28;20049;-44
2021/04/21 07:25:57;;;;;;;20.55;14.15;;;14.20;64.60;;;;;;5047839;28;20044;-42
2021/04/21 07:28:27;;;;;;;26.10;17.30;;;14.20;61.60;;;;;;5047454;28;20064;-40
2021/04/21 07:30:54;;;;;;;23.58;18.13;;;13.90;63.80;;;;;;5041296;28;20053;-41
2021/04/21 07:33:47;;;;;;;24.45;20.02;;;13.30;65.20;;;;;;5042150;28;20056;-41
2021/04/21 07:36:19;;;;;;;24.88;21.15;;;13.00;68.30;;;;;;5026504;28;20116;-40
2021/04/21 07:38:48;;;;;;;28.40;21.52;;;13.20;69.90;;;;;;5021601;28;20487;-41
2021/04/21 07:41:43;;;;;;;47.50;40.33;;;13.40;70.40;;;;;;5020155;28;20081;-42
2021/04/21 07:44:36;;;;;;;30.20;26.50;;;15.00;66.80;;;;;;5005083;28;20046;-42
2021/04/21 07:47:07;;;;;;;27.33;23.33;;;15.90;63.60;;;;;;5007160;28;20053;-40
2021/04/21 07:49:44;;;;;;;26.13;23.33;;;16.10;63.60;;;;;;5011407;28;20054;-39
2021/04/21 07:52:22;;;;;;;26.42;22.80;;;16.00;61.80;;;;;;5016645;28;20053;-46
2021/04/21 07:55:03;;;;;;;27.15;23.65;;;16.00;62.30;;;;;;5010274;28;20041;-44
2021/04/21 07:57:32;;;;;;;27.00;23.30;;;16.10;62.90;;;;;;5005879;28;20119;-43
2021/04/21 07:59:58;;;;;;;26.58;23.75;;;16.10;63.90;;;;;;5020028;28;20069;-45
2021/04/21 08:02:38;;;;;;;26.30;23.42;;;16.30;62.70;;;;;;5022936;28;20165;-40
2021/04/21 08:05:11;;;;;;;32.25;25.80;;;15.10;65.50;;;;;;5012450;28;20478;-39
2021/04/21 08:07:39;;;;;;;37.65;30.83;;;14.90;66.30;;;;;;5023651;28;20135;-40
2021/04/21 08:10:27;;;;;;;30.85;27.35;;;15.00;66.80;;;;;;5015664;28;20060;-40
2021/04/21 08:13:08;;;;;;;37.83;30.08;;;14.50;67.00;;;;;;5023479;28;20477;-39
2021/04/21 08:15:39;;;;;;;35.92;30.65;;;13.90;68.80;;;;;;5014250;28;20049;-39
2021/04/21 08:18:11;;;;;;;35.85;29.35;;;13.60;70.00;;;;;;5020767;28;20155;-38
2021/04/21 08:20:55;;;;;;;51.92;29.65;;;13.80;70.10;;;;;;5018931;28;20132;-40
2021/04/21 08:23:24;;;;;;;40.03;28.92;;;13.80;68.70;;;;;;5004460;28;20104;-40
2021/04/21 08:25:52;;;;;;;31.88;26.70;;;14.20;69.10;;;;;;5023585;28;20059;-39
2021/04/21 08:28:22;;;;;;;35.92;28.98;;;14.20;68.10;;;;;;5008570;28;20140;-40
2021/04/21 08:30:59;;;;;;;39.45;30.27;;;14.30;67.80;;;;;;5025427;28;20041;-41
2021/04/21 08:33:31;;;;;;;40.00;29.95;;;14.10;68.10;;;;;;5021670;28;20061;-39
2021/04/21 08:36:00;;;;;;;37.10;27.92;;;14.30;69.40;;;;;;5021668;28;20568;-39
2021/04/21 08:38:28;;;;;;;34.50;26.23;;;14.50;68.10;;;;;;5036298;28;20075;-40
2021/04/21 08:40:57;;;;;;;31.65;25.70;;;14.60;66.30;;;;;;5045359;28;20041;-40
2021/04/21 08:43:27;;;;;;;33.08;25.23;;;15.30;65.80;;;;;;5042277;28;20036;-40
2021/04/21 08:45:55;;;;;;;34.65;26.02;;;15.40;63.60;;;;;;5037967;28;20045;-40
2021/04/21 08:48:26;;;;;;;31.73;26.67;;;14.90;63.70;;;;;;5024646;28;20508;-40
2021/04/21 08:50:59;;;;;;;32.78;25.83;;;13.90;65.20;;;;;;5022987;28;20497;-39
2021/04/21 08:53:34;;;;;;;33.20;25.30;;;13.50;67.50;;;;;;5023746;28;20076;-39
2021/04/21 08:56:14;;;;;;;32.00;24.75;;;13.30;69.40;;;;;;5033560;28;20168;-40
2021/04/21 08:58:44;;;;;;;28.30;23.27;;;13.50;68.80;;;;;;5021769;28;20047;-39
2021/04/21 09:01:12;;;;;;;32.22;24.20;;;13.50;69.90;;;;;;5029490;28;20500;-41
2021/04/21 09:03:43;;;;;;;31.73;23.38;;;13.50;69.50;;;;;;5032503;28;20049;-41
2021/04/21 09:06:12;;;;;;;32.65;23.40;;;13.40;69.70;;;;;;5042855;28;20068;-40
2021/04/21 09:08:42;;;;;;;27.58;22.38;;;13.30;70.70;;;;;;5018700;28;20180;-40
2021/04/21 09:11:11;;;;;;;27.52;22.50;;;13.10;70.90;;;;;;5027465;28;20049;-40
2021/04/21 09:13:38;;;;;;;32.30;21.25;;;13.10;71.20;;;;;;5026020;28;20072;-39
2021/04/21 09:16:04;;;;;;;26.05;19.17;;;12.70;71.60;;;;;;5029907;28;20045;-40
2021/04/21 09:18:32;;;;;;;25.90;20.33;;;12.40;72.60;;;;;;5040610;28;20049;-39
2021/04/21 09:21:00;;;;;;;25.42;18.95;;;12.50;73.00;;;;;;5041516;28;20144;-41
2021/04/21 09:23:47;;;;;;;23.98;18.77;;;12.60;73.10;;;;;;5040156;28;20045;-39
2021/04/21 09:26:24;;;;;;;25.75;18.52;;;12.30;73.50;;;;;;5031429;28;20204;-39
2021/04/21 09:28:53;;;;;;;23.33;16.65;;;12.30;73.90;;;;;;5034968;28;20053;-39
2021/04/21 09:31:28;;;;;;;26.60;16.20;;;12.20;73.80;;;;;;5041122;28;20041;-38
2021/04/21 09:34:15;;;;;;;17.20;12.48;;;12.50;73.90;;;;;;5042896;28;20041;-39
2021/04/21 09:36:49;;;;;;;18.80;12.90;;;12.50;72.50;;;;;;5026663;28;20058;-39
2021/04/21 09:39:18;;;;;;;34.17;13.57;;;12.30;72.80;;;;;;5024845;28;20580;-40
2021/04/21 09:41:46;;;;;;;21.08;12.48;;;12.40;72.70;;;;;;5031341;28;20053;-38
2021/04/21 09:44:18;;;;;;;18.38;11.85;;;12.10;73.30;;;;;;5031712;28;20428;-39
2021/04/21 09:46:45;;;;;;;;;;;12.40;73.30;;;;;;5013641;28;20045;-39
2021/04/21 09:49:43;;;;;;;15.68;9.80;;;12.70;71.60;;;;;;5031229;28;19925;-40
2021/04/21 09:52:13;;;;;;;11.43;7.40;;;13.50;70.00;;;;;;5010562;28;20040;-40
2021/04/21 09:54:44;;;;;;;37.45;30.63;;;13.50;66.80;;;;;;5035089;28;20094;-40
2021/04/21 09:57:14;;;;;;;38.67;31.33;;;13.80;66.70;;;;;;5041443;28;20056;-42
2021/04/21 09:59:52;;;;;;;8.23;4.35;;;13.90;64.40;;;;;;5008100;28;20781;-41
2021/04/21 10:02:37;;;;;;;8.02;3.63;;;13.40;65.10;;;;;;5038249;28;20063;-42
2021/04/21 10:05:26;;;;;;;15.32;9.55;;;13.20;63.60;;;;;;5038741;28;20040;-38
2021/04/21 10:08:20;;;;;;;8.48;2.97;;;13.70;65.80;;;;;;5041517;28;20077;-40
2021/04/21 10:11:08;;;;;;;7.85;2.65;;;14.00;63.30;;;;;;5022111;28;20779;-40
2021/04/21 10:13:54;;;;;;;6.68;2.92;;;14.70;60.40;;;;;;5029300;28;20136;-41
2021/04/21 10:16:25;;;;;;;14.60;3.20;;;14.80;58.90;;;;;;5039573;28;20057;-40
2021/04/21 10:18:52;;;;;;;7.32;2.47;;;14.30;59.70;;;;;;5041892;28;21407;-41
2021/04/21 10:21:20;;;;;;;7.00;2.60;;;14.00;60.30;;;;;;5040223;28;20045;-41
2021/04/21 10:23:48;;;;;;;11.82;3.15;;;13.60;61.80;;;;;;5039602;28;20045;-41
2021/04/21 10:26:16;;;;;;;6.65;3.05;;;13.40;62.30;;;;;;5048303;28;20049;-40
2021/04/21 10:28:44;;;;;;;8.05;3.40;;;13.30;62.50;;;;;;5044186;28;20114;-39
2021/04/21 10:31:16;;;;;;;7.60;2.80;;;13.70;62.20;;;;;;5042940;28;20044;-40
2021/04/21 10:33:48;;;;;;;6.05;2.20;;;14.40;59.90;;;;;;5031209;28;20052;-41
2021/04/21 10:36:17;;;;;;;5.68;2.45;;;15.10;59.40;;;;;;5043905;28;20049;-41
2021/04/21 10:38:46;;;;;;;4.22;1.92;;;14.60;58.40;;;;;;5040300;28;20053;-40
2021/04/21 10:41:24;;;;;;;10.93;2.25;;;14.50;59.40;;;;;;5041219;28;20045;-40
2021/04/21 10:44:18;;;;;;;9.00;2.43;;;14.10;58.90;;;;;;5044192;28;20056;-41
2021/04/21 10:47:18;;;;;;;22.98;3.25;;;13.80;59.10;;;;;;5042389;28;20368;-40
2021/04/21 10:50:03;;;;;;;6.97;2.17;;;13.70;60.90;;;;;;5039197;28;20048;-40
2021/04/21 10:52:29;;;;;;;32.17;18.45;;;14.00;58.30;;;;;;5050108;28;20097;-47
2021/04/21 10:55:07;;;;;;;16.65;9.13;;;15.30;57.40;;;;;;5043459;28;20044;-40
2021/04/21 10:57:38;;;;;;;35.42;25.75;;;16.60;54.40;;;;;;5036156;28;20405;-41
2021/04/21 11:00:17;;;;;;;11.35;4.63;;;17.50;50.80;;;;;;5025630;28;20049;-40
2021/04/21 11:03:06;;;;;;;18.17;11.65;;;17.20;49.90;;;;;;5039609;28;20049;-39
2021/04/21 11:05:41;;;;;;;10.93;2.53;;;17.20;48.90;;;;;;5035331;28;20051;-39
2021/04/21 11:08:15;;;;;;;12.90;4.50;;;16.70;47.90;;;;;;5043619;28;20065;-39
2021/04/21 11:10:55;;;;;;;8.80;2.53;;;16.60;51.10;;;;;;5039698;28;20049;-39
2021/04/21 11:13:34;;;;;;;9.45;2.38;;;15.50;48.40;;;;;;5027951;28;20310;-39
2021/04/21 11:16:19;;;;;;;6.82;2.53;;;15.30;51.30;;;;;;5040646;28;20083;-40
2021/04/21 11:18:45;;;;;;;9.30;2.55;;;15.90;51.50;;;;;;5044378;28;20075;-40
2021/04/21 11:21:14;;;;;;;10.63;2.28;;;16.20;50.50;;;;;;5027682;28;20417;-40
2021/04/21 11:24:01;;;;;;;11.35;2.17;;;16.30;50.30;;;;;;5040035;28;20107;-40
2021/04/21 11:26:28;;;;;;;10.50;3.20;;;16.70;49.20;;;;;;5028788;28;20059;-40
2021/04/21 11:29:07;;;;;;;7.32;1.65;;;16.40;50.10;;;;;;5033228;28;20049;-40
2021/04/21 11:31:43;;;;;;;10.57;2.08;;;16.00;51.50;;;;;;5039621;28;20072;-40
2021/04/21 11:34:29;;;;;;;7.30;1.95;;;15.70;51.50;;;;;;5035336;28;20056;-39
2021/04/21 11:37:15;;;;;;;4.78;1.40;;;15.40;51.70;;;;;;5038243;28;20132;-40
2021/04/21 11:39:45;;;;;;;8.82;1.95;;;15.00;51.10;;;;;;5033814;28;20454;-39
2021/04/21 11:42:31;;;;;;;12.68;3.13;;;16.20;51.80;;;;;;5038942;28;20053;-39
2021/04/21 11:45:20;;;;;;;13.32;3.63;;;17.10;50.70;;;;;;5037936;28;20059;-41
2021/04/21 11:48:01;;;;;;;10.75;2.28;;;17.30;48.20;;;;;;5044203;28;20053;-40
2021/04/21 11:50:38;;;;;;;12.25;2.85;;;16.60;48.40;;;;;;5022582;28;20037;-38
2021/04/21 11:53:14;;;;;;;11.73;2.50;;;16.40;50.10;;;;;;5043855;28;20047;-39
2021/04/21 11:56:00;;;;;;;15.27;2.53;;;15.80;51.00;;;;;;5032462;28;20056;-39
2021/04/21 11:58:33;;;;;;;14.65;2.90;;;15.30;52.60;;;;;;5033618;28;20053;-39
2021/04/21 12:01:09;;;;;;;16.40;2.95;;;15.00;53.80;;;;;;5030743;28;20488;-39
2021/04/21 12:03:47;;;;;;;16.52;2.83;;;15.10;55.10;;;;;;5034652;28;20049;-39
2021/04/21 12:06:17;;;;;;;9.98;3.45;;;14.80;54.70;;;;;;5037730;28;20040;-40
2021/04/21 12:08:48;;;;;;;15.02;3.60;;;15.00;54.30;;;;;;5034991;28;20055;-39
2021/04/21 12:11:26;;;;;;;19.88;7.07;;;14.20;54.90;;;;;;5037299;28;20053;-39
2021/04/21 12:13:54;;;;;;;61.60;32.35;;;14.40;56.90;;;;;;5033913;28;20573;-39
2021/04/21 12:16:23;;;;;;;24.48;8.77;;;14.50;55.90;;;;;;5031481;28;20059;-39
2021/04/21 12:18:58;;;;;;;13.13;5.90;;;14.30;55.70;;;;;;5041883;28;20053;-39
2021/04/21 12:21:33;;;;;;;23.23;12.82;;;13.90;55.10;;;;;;5045908;28;20139;-39
2021/04/21 12:24:02;;;;;;;18.40;7.35;;;13.50;55.70;;;;;;5032632;28;20053;-39
2021/04/21 12:26:29;;;;;;;25.25;12.05;;;14.80;55.20;;;;;;5012028;28;20057;-39
2021/04/21 12:29:02;;;;;;;18.83;7.47;;;14.90;52.20;;;;;;5032290;28;20037;-39
2021/04/21 12:31:31;;;;;;;22.50;6.65;;;14.30;51.90;;;;;;5034170;28;20795;-38
2021/04/21 12:34:02;;;;;;;60.40;47.25;;;14.50;51.60;;;;;;5029689;28;20072;-39
2021/04/21 12:36:35;;;;;;;12.95;4.10;;;15.60;54.60;;;;;;5035737;28;20033;-41
2021/04/21 12:39:05;;;;;;;15.70;4.65;;;15.90;49.10;;;;;;5031499;28;20154;-42
2021/04/21 12:41:41;;;;;;;15.35;6.70;;;16.50;47.80;;;;;;5033469;28;20076;-41
2021/04/21 12:44:20;;;;;;;26.60;6.97;;;15.60;46.50;;;;;;5052799;28;20129;-40
2021/04/21 12:46:49;;;;;;;14.35;3.55;;;14.70;48.10;;;;;;5042673;28;20057;-39
2021/04/21 12:49:28;;;;;;;14.75;4.25;;;14.90;47.90;;;;;;5041231;28;20119;-40
2021/04/21 12:51:59;;;;;;;24.45;4.78;;;15.50;48.80;;;;;;5035678;28;20060;-41
2021/04/21 12:54:34;;;;;;;14.90;4.05;;;15.90;44.40;;;;;;5033908;28;20045;-44
2021/04/21 12:57:03;;;;;;;11.75;2.80;;;16.40;45.80;;;;;;5035721;28;20053;-42
2021/04/21 12:59:47;;;;;;;11.43;2.97;;;17.10;45.00;;;;;;5034942;28;20059;-40
2021/04/21 13:02:21;;;;;;;12.73;3.83;;;17.70;43.20;;;;;;5026965;28;20077;-42
2021/04/21 13:04:50;;;;;;;14.20;3.88;;;17.90;41.90;;;;;;5030154;28;20481;-40
2021/04/21 13:07:25;;;;;;;15.20;3.00;;;17.90;41.00;;;;;;5030869;28;20052;-42
2021/04/21 13:10:14;;;;;;;17.55;4.63;;;17.90;40.00;;;;;;5033496;28;20057;-41
2021/04/21 13:12:43;;;;;;;18.33;5.53;;;18.60;40.60;;;;;;5022465;28;20507;-41
2021/04/21 13:15:23;;;;;;;30.70;22.77;;;18.30;39.70;;;;;;5031748;28;20077;-40
2021/04/21 13:17:52;;;;;;;34.53;20.13;;;17.50;39.00;;;;;;5028085;28;20068;-41
2021/04/21 13:20:18;;;;;;;19.25;5.43;;;17.40;41.40;;;;;;5029872;28;20049;-41
2021/04/21 13:23:09;;;;;;;17.83;5.88;;;17.20;40.00;;;;;;5042611;28;20051;-40